Hlavní strana
METAR-TAF:

METAR-TAF

Letiště :

Waycross, Georgie, Spojené státy americké

zeměpisná šířka: 31-15N, zeměpisná délka: 082-24W, výška: 46 m

Aktuální stav počasí

Zpráva byla vytvořena před 18 minutami, v 10:55 UTC
Bezvětří
Teplota 22°C
Vlhkost vzduchu 88%
Tlak 1021 hPa
Viditelnost: 16.1 km
Jasno

METAR: KAYS 261055Z AUTO 00000KT 10SM CLR 22/20 A3015 RMK AO2 T02210195 TSNO

Čas: 07:13 (11:13 UTC)


TAF: chybějící

Stav a předpovědi počasí z více než 4 000 letišť (zprávy METAR a TAF).

Červené a žluté tečky na mapě představují dostupné meteorologické stanice.

Když kurzor umístíte na tečku, zobrazí se název stanice.

Pak kliknutím zobrazíte stav a předpověď počasí.

Chcete-li změnit mapu, kliknutím na zelené tlačítko se znaménkem +mapu přiblížíte, kliknutím na zelené tlačítko se znaménkem – mapu oddálíte a kliknutím na zelené šipky přejdete na sousední mapy.


METAR-TAF: